createdAt,value
2022-08-22T00:08:53.763Z,3.83
2022-08-22T00:19:04.966Z,5.28
2022-08-22T00:29:13.113Z,7.57
2022-08-22T00:39:22.359Z,5.55
2022-08-22T00:49:44.392Z,3.37
2022-08-22T01:00:04.119Z,5.90
2022-08-22T01:10:22.490Z,3.37
2022-08-22T01:20:55.918Z,3.28
2022-08-22T01:31:18.634Z,4.12
2022-08-22T01:41:39.523Z,3.25
2022-08-22T01:51:47.500Z,3.57
2022-08-22T02:01:59.917Z,4.15
2022-08-22T02:12:23.769Z,3.08
2022-08-22T02:22:44.347Z,4.62
2022-08-22T02:33:00.554Z,3.63
2022-08-22T02:43:20.660Z,4.07
2022-08-22T02:53:30.299Z,3.78
2022-08-22T03:03:40.847Z,3.80
2022-08-22T03:13:51.480Z,5.70
2022-08-22T03:23:59.495Z,5.05
2022-08-22T03:34:22.634Z,4.40
2022-08-22T03:45:02.477Z,6.53
2022-08-22T03:55:20.586Z,3.80
2022-08-22T04:05:39.612Z,5.47
2022-08-22T04:16:05.265Z,5.40
2022-08-22T04:26:13.795Z,6.18
2022-08-22T04:36:21.465Z,5.30
2022-08-22T04:46:39.480Z,5.78
2022-08-22T04:56:54.496Z,6.72
2022-08-22T05:07:07.502Z,5.20
2022-08-22T05:17:15.501Z,6.03
2022-08-22T05:27:25.107Z,6.70
2022-08-22T05:37:35.556Z,7.07
2022-08-22T05:47:43.062Z,7.70
2022-08-22T05:57:50.182Z,6.60
2022-08-22T06:07:59.838Z,6.75
2022-08-22T06:18:20.880Z,5.47
2022-08-22T06:28:27.210Z,7.55
2022-08-22T06:38:33.528Z,8.23
2022-08-22T06:48:38.296Z,9.48
2022-08-22T06:58:43.882Z,8.85
2022-08-22T07:08:54.729Z,9.25
2022-08-22T07:29:10.326Z,10.00
2022-08-22T07:39:24.281Z,9.27
2022-08-22T07:49:33.407Z,8.60
2022-08-22T07:59:44.653Z,12.02
2022-08-22T08:09:52.291Z,10.98
2022-08-22T08:19:56.833Z,12.55
2022-08-22T08:30:04.103Z,10.18
2022-08-22T08:40:17.958Z,13.40
2022-08-22T08:50:34.248Z,10.77
2022-08-22T09:00:51.958Z,12.05
2022-08-22T09:11:31.085Z,11.35
2022-08-22T09:22:19.652Z,13.32
2022-08-22T09:32:35.446Z,12.95
2022-08-22T09:42:46.454Z,13.73
2022-08-22T09:52:56.909Z,12.27
2022-08-22T10:03:06.438Z,13.62
2022-08-22T10:13:20.021Z,13.53
2022-08-22T10:23:29.720Z,10.48
2022-08-22T10:33:39.719Z,11.50
2022-08-22T10:43:56.580Z,10.67
2022-08-22T10:54:38.283Z,10.15
2022-08-22T11:04:55.532Z,10.82
2022-08-22T11:15:07.528Z,9.63
2022-08-22T11:25:38.622Z,10.45
2022-08-22T11:35:56.010Z,11.25
2022-08-22T11:46:02.121Z,11.02
2022-08-22T11:56:17.547Z,7.93
2022-08-22T12:06:51.756Z,8.55
2022-08-22T12:17:28.562Z,11.27
2022-08-22T12:28:08.260Z,9.93
2022-08-22T12:38:29.740Z,8.90
2022-08-22T12:48:53.386Z,9.60
2022-08-22T12:59:33.748Z,9.75
2022-08-22T13:09:39.303Z,8.75
2022-08-22T13:19:55.604Z,9.00
2022-08-22T13:30:01.305Z,9.93
2022-08-22T13:40:10.226Z,9.90
2022-08-22T13:50:20.316Z,9.55
2022-08-22T14:01:08.996Z,9.43
2022-08-22T14:11:21.628Z,8.95
2022-08-22T14:21:40.119Z,8.32
2022-08-22T14:31:56.946Z,10.85
2022-08-22T14:42:10.049Z,9.70
2022-08-22T14:52:33.294Z,10.02
2022-08-22T15:02:36.886Z,8.52
2022-08-22T15:12:47.694Z,9.63
2022-08-22T15:22:53.171Z,7.37
2022-08-22T15:33:10.001Z,6.45
2022-08-22T15:43:23.425Z,7.78
2022-08-22T15:53:31.397Z,7.65
2022-08-22T16:03:43.775Z,13.43
2022-08-22T16:13:48.507Z,7.07
2022-08-22T16:24:29.691Z,8.85
2022-08-22T16:34:43.947Z,8.70
2022-08-22T16:44:47.990Z,7.10
2022-08-22T16:54:53.895Z,6.95
2022-08-22T17:05:11.426Z,4.43
2022-08-22T17:15:26.258Z,4.20
2022-08-22T17:25:35.926Z,7.45
2022-08-22T17:35:50.476Z,5.45
2022-08-22T17:46:06.643Z,5.95
2022-08-22T17:56:21.457Z,5.37
2022-08-22T18:06:28.996Z,6.10
2022-08-22T18:16:37.150Z,5.97
2022-08-22T18:26:46.071Z,7.32
2022-08-22T18:36:55.900Z,7.22
2022-08-22T18:47:00.972Z,7.67
2022-08-22T18:57:09.204Z,6.18
2022-08-22T19:07:53.944Z,8.45
2022-08-22T19:18:16.821Z,7.15
2022-08-22T19:28:29.783Z,6.10
2022-08-22T19:39:03.400Z,5.18
2022-08-22T19:49:28.352Z,5.55
2022-08-22T19:59:51.356Z,5.55
2022-08-22T20:10:09.133Z,3.90
2022-08-22T20:20:41.702Z,5.20
2022-08-22T20:30:51.146Z,6.78
2022-08-22T20:41:01.691Z,4.70
2022-08-22T20:51:07.457Z,4.33
2022-08-22T21:01:14.018Z,3.83
2022-08-22T21:11:41.818Z,4.68
2022-08-22T21:21:47.304Z,5.57
2022-08-22T21:31:53.154Z,5.57
2022-08-22T21:42:13.249Z,4.15
2022-08-22T21:52:28.576Z,3.08
2022-08-22T22:02:37.294Z,3.53
2022-08-22T22:12:42.133Z,4.15
2022-08-22T22:22:48.643Z,4.80
2022-08-22T22:32:55.330Z,4.60
2022-08-22T22:43:04.306Z,7.18
2022-08-22T22:53:12.460Z,6.05
2022-08-22T23:03:27.887Z,5.32
2022-08-22T23:13:36.700Z,6.00
2022-08-22T23:23:49.525Z,4.40
2022-08-22T23:33:57.270Z,6.32
2022-08-22T23:44:08.495Z,6.87
2022-08-22T23:54:22.185Z,5.35
